Terminal Aerodrome Forecast
Issued by NWS

Home | Current Version | Previous Version | Graphics & Text | Print | Product List | Glossary On
Versions: 1 2 3 4 5 6 7 8 9 10 11 12
000
FTUS43 KIWX 290500 RRA
TAFSBN
TAF
KSBN 290544Z 2906/3006 16015G22KT P6SM BKN150 WS020/20050KT
      TEMPO 2907/2909 6SM -SHRA BR BKN070
     FM290900 18018G25KT P6SM VCSH OVC070 WS020/20050KT
     FM291300 22012KT 4SM -SHRA OVC025
     FM291500 29012KT 4SM -RASN BR OVC008
     FM291700 31016G25KT 4SM -RASN BKN008 OVC015
     FM292100 32016G24KT 4SM -SHSN OVC010=

USA.gov is the U.S. government's official web portal to all federal, state and local government web resources and services.